createdAt,value
2019-04-07T00:00:09.038Z,97998.59
2019-04-07T00:02:37.454Z,98002.55
2019-04-07T00:05:13.618Z,98001.45
2019-04-07T00:07:37.843Z,98002.16
2019-04-07T00:10:09.174Z,98000.48
2019-04-07T00:12:38.146Z,98005.14
2019-04-07T00:15:06.994Z,98005.83
2019-04-07T00:17:36.199Z,98012.11
2019-04-07T00:20:07.134Z,98009.16
2019-04-07T00:22:35.559Z,98013.24
2019-04-07T00:25:05.197Z,98009.48
2019-04-07T00:27:33.692Z,98009.94
2019-04-07T00:30:02.116Z,98009.11
2019-04-07T00:32:30.559Z,98006.66
2019-04-07T00:34:58.916Z,98009.22
2019-04-07T00:37:27.383Z,98013.94
2019-04-07T00:39:55.730Z,98010.13
2019-04-07T00:42:24.698Z,98013.98
2019-04-07T00:44:53.287Z,98013.86
2019-04-07T00:47:21.901Z,98012.67
2019-04-07T00:49:50.242Z,98005.61
2019-04-07T00:52:25.380Z,98009.34
2019-04-07T00:54:53.732Z,98004.56
2019-04-07T00:57:22.178Z,98006.83
2019-04-07T00:59:50.613Z,98009.75
2019-04-07T01:02:19.114Z,98010.94
2019-04-07T01:04:47.532Z,98011.77
2019-04-07T01:07:15.981Z,98011.91
2019-04-07T01:09:44.341Z,98015.59
2019-04-07T01:12:12.854Z,98012.78
2019-04-07T01:14:41.761Z,98017.71
2019-04-07T01:17:10.306Z,98012.80
2019-04-07T01:19:38.718Z,98018.70
2019-04-07T01:22:07.094Z,98006.70
2019-04-07T01:24:35.441Z,98010.88
2019-04-07T01:27:04.015Z,98011.00
2019-04-07T01:29:33.178Z,98018.46
2019-04-07T01:32:01.588Z,98022.12
2019-04-07T01:34:30.379Z,98016.06
2019-04-07T01:36:58.797Z,98024.05
2019-04-07T01:39:27.334Z,98026.56
2019-04-07T01:41:57.397Z,98021.09
2019-04-07T01:44:27.664Z,98030.58
2019-04-07T01:46:58.583Z,98020.47
2019-04-07T01:49:45.146Z,98026.89
2019-04-07T01:52:18.307Z,98023.44
2019-04-07T01:54:51.011Z,98026.75
2019-04-07T01:57:23.724Z,98031.49
2019-04-07T01:59:59.745Z,98034.16
2019-04-07T02:02:36.619Z,98030.70
2019-04-07T02:05:14.460Z,98038.33
2019-04-07T02:07:56.553Z,98036.16
2019-04-07T02:10:44.573Z,98036.22
2019-04-07T02:13:23.851Z,98025.48
2019-04-07T02:16:03.746Z,98025.98
2019-04-07T02:18:36.847Z,98025.98
2019-04-07T02:21:07.180Z,98023.98
2019-04-07T02:23:37.289Z,98021.47
2019-04-07T02:26:13.606Z,98025.36
2019-04-07T02:28:46.260Z,98028.01
2019-04-07T02:31:17.189Z,98030.17
2019-04-07T02:33:53.003Z,98025.40
2019-04-07T02:36:31.363Z,98030.95
2019-04-07T02:39:06.012Z,98025.88
2019-04-07T02:41:38.393Z,98023.00
2019-04-07T02:44:09.304Z,98033.23
2019-04-07T02:46:54.742Z,98033.05
2019-04-07T02:49:24.968Z,98023.58
2019-04-07T02:52:11.520Z,98024.91
2019-04-07T02:54:42.874Z,98023.70
2019-04-07T02:57:22.085Z,98018.89
2019-04-07T02:59:52.369Z,98014.63
2019-04-07T03:02:41.163Z,98020.80
2019-04-07T03:05:17.338Z,98017.85
2019-04-07T03:07:56.465Z,98013.34
2019-04-07T03:10:33.403Z,98021.98
2019-04-07T03:13:18.414Z,98022.09
2019-04-07T03:15:48.501Z,98025.37
2019-04-07T03:18:27.397Z,98032.36
2019-04-07T03:21:09.801Z,98034.81
2019-04-07T03:23:51.808Z,98029.52
2019-04-07T03:26:37.947Z,98032.68
2019-04-07T03:29:14.105Z,98044.36
2019-04-07T03:31:51.500Z,98045.80
2019-04-07T03:34:30.170Z,98044.55
2019-04-07T03:37:19.121Z,98046.49
2019-04-07T03:39:51.274Z,98058.82
2019-04-07T03:42:34.322Z,98065.89
2019-04-07T03:45:04.501Z,98060.64
2019-04-07T03:47:50.115Z,98051.09
2019-04-07T03:50:20.495Z,98055.45
2019-04-07T03:52:56.797Z,98048.41
2019-04-07T03:55:28.137Z,98053.43
2019-04-07T03:58:16.651Z,98053.91
2019-04-07T04:01:05.287Z,98045.27
2019-04-07T04:03:51.668Z,98044.05
2019-04-07T04:06:30.547Z,98037.14
2019-04-07T04:09:06.330Z,98040.06
2019-04-07T04:11:39.496Z,98039.07
2019-04-07T04:14:09.722Z,98040.75
2019-04-07T04:16:40.408Z,98035.35
2019-04-07T04:19:08.864Z,98048.72
2019-04-07T04:21:37.994Z,98042.02
2019-04-07T04:24:06.716Z,98039.27
2019-04-07T04:26:35.874Z,98050.98
2019-04-07T04:29:04.488Z,98054.42
2019-04-07T04:31:33.776Z,98041.27
2019-04-07T04:34:02.267Z,98039.71
2019-04-07T04:36:31.543Z,98052.30
2019-04-07T04:39:00.584Z,98052.96
2019-04-07T04:41:29.435Z,98055.47
2019-04-07T04:43:58.019Z,98059.14
2019-04-07T04:46:26.514Z,98059.23
2019-04-07T04:48:55.499Z,98072.87
2019-04-07T04:51:24.210Z,98077.72
2019-04-07T04:53:52.553Z,98083.72
2019-04-07T04:56:20.934Z,98078.15
2019-04-07T04:58:50.726Z,98079.59
2019-04-07T05:01:19.184Z,98081.72
2019-04-07T05:03:47.542Z,98082.30
2019-04-07T05:06:15.977Z,98077.20
2019-04-07T05:08:44.442Z,98084.10
2019-04-07T05:11:13.406Z,98075.22
2019-04-07T05:13:42.164Z,98082.98
2019-04-07T05:16:12.895Z,98085.59
2019-04-07T05:18:41.597Z,98085.83
2019-04-07T05:21:10.528Z,98085.75
2019-04-07T05:23:39.514Z,98089.91
2019-04-07T05:26:08.506Z,98102.72
2019-04-07T05:28:37.899Z,98100.55
2019-04-07T05:31:07.255Z,98098.50
2019-04-07T05:33:35.676Z,98103.03
2019-04-07T05:36:04.810Z,98108.25
2019-04-07T05:38:33.279Z,98105.33
2019-04-07T05:41:02.923Z,98104.28
2019-04-07T05:43:31.544Z,98112.34
2019-04-07T05:46:00.683Z,98108.05
2019-04-07T05:48:29.216Z,98116.11
2019-04-07T05:50:59.999Z,98122.84
2019-04-07T05:53:28.693Z,98122.41
2019-04-07T05:55:57.962Z,98130.71
2019-04-07T05:58:26.824Z,98125.29
2019-04-07T06:00:57.020Z,98133.44
2019-04-07T06:03:27.608Z,98133.48
2019-04-07T06:05:57.876Z,98134.42
2019-04-07T06:08:36.735Z,98135.95
2019-04-07T06:11:04.158Z,98138.02
2019-04-07T06:13:33.086Z,98142.11
2019-04-07T06:16:02.055Z,98142.31
2019-04-07T06:18:36.869Z,98139.22
2019-04-07T06:21:06.076Z,98143.20
2019-04-07T06:23:36.426Z,98143.79
2019-04-07T06:26:09.325Z,98142.77
2019-04-07T06:28:36.106Z,98137.44
2019-04-07T06:31:06.609Z,98146.75
2019-04-07T06:33:38.126Z,98144.77
2019-04-07T06:36:05.429Z,98143.19
2019-04-07T06:38:35.918Z,98147.70
2019-04-07T06:41:04.444Z,98149.60
2019-04-07T06:43:44.137Z,98156.80
2019-04-07T06:46:14.129Z,98155.72
2019-04-07T06:49:02.665Z,98148.32
2019-04-07T06:51:49.011Z,98145.67
2019-04-07T06:54:32.006Z,98144.26
2019-04-07T06:57:18.518Z,98146.18
2019-04-07T06:59:49.128Z,98149.52
2019-04-07T07:02:35.875Z,98156.24
2019-04-07T07:05:18.977Z,98145.57
2019-04-07T07:07:54.822Z,98157.81
2019-04-07T07:10:37.141Z,98162.97
2019-04-07T07:13:11.018Z,98160.65
2019-04-07T07:15:55.180Z,98159.92
2019-04-07T07:18:28.345Z,98160.67
2019-04-07T07:21:01.777Z,98165.79
2019-04-07T07:23:30.951Z,98161.12
2019-04-07T07:26:02.907Z,98168.05
2019-04-07T07:28:29.602Z,98162.94
2019-04-07T07:30:58.893Z,98164.61
2019-04-07T07:33:28.003Z,98163.97
2019-04-07T07:35:57.030Z,98164.24
2019-04-07T07:38:27.017Z,98165.07
2019-04-07T07:40:55.930Z,98164.36
2019-04-07T07:43:27.969Z,98157.48
2019-04-07T07:45:54.603Z,98164.36
2019-04-07T07:48:26.187Z,98158.56
2019-04-07T07:50:53.746Z,98164.67
2019-04-07T07:53:26.063Z,98166.80
2019-04-07T07:55:55.688Z,98176.08
2019-04-07T07:58:27.912Z,98171.55
2019-04-07T08:00:54.472Z,98165.53
2019-04-07T08:03:23.030Z,98167.81
2019-04-07T08:05:52.265Z,98171.02
2019-04-07T08:08:21.209Z,98169.72
2019-04-07T08:10:50.758Z,98175.33
2019-04-07T08:13:21.281Z,98176.15
2019-04-07T08:15:50.376Z,98185.20
2019-04-07T08:18:20.455Z,98172.96
2019-04-07T08:20:49.139Z,98178.31
2019-04-07T08:23:17.512Z,98180.59
2019-04-07T08:25:46.632Z,98177.99
2019-04-07T08:28:15.720Z,98177.50
2019-04-07T08:30:47.490Z,98183.34
2019-04-07T08:33:14.880Z,98177.28
2019-04-07T08:35:43.559Z,98173.83
2019-04-07T08:38:12.317Z,98186.33
2019-04-07T08:40:41.675Z,98178.94
2019-04-07T08:43:12.567Z,98184.66
2019-04-07T08:45:41.424Z,98190.62
2019-04-07T08:48:10.878Z,98186.33
2019-04-07T08:50:39.894Z,98193.13
2019-04-07T08:53:10.505Z,98190.02
2019-04-07T08:55:39.171Z,98186.34
2019-04-07T08:58:07.544Z,98188.95
2019-04-07T09:00:38.721Z,98192.98
2019-04-07T09:03:11.458Z,98200.29
2019-04-07T09:05:37.294Z,98200.66
2019-04-07T09:08:07.302Z,98195.98
2019-04-07T09:10:44.135Z,98202.80
2019-04-07T09:13:13.124Z,98204.84
2019-04-07T09:15:44.691Z,98202.44
2019-04-07T09:18:16.128Z,98204.81
2019-04-07T09:21:03.365Z,98207.67
2019-04-07T09:23:33.440Z,98207.68
2019-04-07T09:26:16.076Z,98208.75
2019-04-07T09:28:46.068Z,98211.12
2019-04-07T09:31:16.428Z,98216.95
2019-04-07T09:33:48.991Z,98206.95
2019-04-07T09:36:22.295Z,98215.30
2019-04-07T09:38:59.322Z,98214.20
2019-04-07T09:41:36.433Z,98214.53
2019-04-07T09:44:06.637Z,98211.84
2019-04-07T09:46:53.094Z,98219.61
2019-04-07T09:49:25.690Z,98212.95
2019-04-07T09:51:58.687Z,98208.00
2019-04-07T09:54:28.678Z,98210.46
2019-04-07T09:57:06.397Z,98210.09
2019-04-07T09:59:42.858Z,98209.93
2019-04-07T10:02:33.579Z,98205.57
2019-04-07T10:05:17.763Z,98212.25
2019-04-07T10:08:04.386Z,98210.03
2019-04-07T10:10:43.739Z,98212.53
2019-04-07T10:13:22.862Z,98217.98
2019-04-07T10:16:02.352Z,98212.90
2019-04-07T10:18:38.647Z,98219.16
2019-04-07T10:21:25.257Z,98220.30
2019-04-07T10:23:59.251Z,98219.38
2019-04-07T10:26:45.957Z,98222.09
2019-04-07T10:29:29.351Z,98228.05
2019-04-07T10:32:10.032Z,98225.28
2019-04-07T10:34:46.210Z,98225.00
2019-04-07T10:37:16.868Z,98228.71
2019-04-07T10:40:05.448Z,98229.91
2019-04-07T10:42:35.883Z,98224.52
2019-04-07T10:45:17.408Z,98225.77
2019-04-07T10:47:50.273Z,98220.26
2019-04-07T10:50:38.176Z,98229.09
2019-04-07T10:53:08.336Z,98223.51
2019-04-07T10:55:44.189Z,98228.52
2019-04-07T10:58:30.173Z,98223.13
2019-04-07T11:01:16.763Z,98227.89
2019-04-07T11:03:46.968Z,98223.58
2019-04-07T11:06:18.111Z,98224.33
2019-04-07T11:09:04.825Z,98223.25
2019-04-07T11:11:34.787Z,98231.34
2019-04-07T11:14:05.743Z,98224.74
2019-04-07T11:16:42.153Z,98226.50
2019-04-07T11:19:17.759Z,98229.69
2019-04-07T11:21:53.777Z,98229.20
2019-04-07T11:24:32.822Z,98225.68
2019-04-07T11:27:19.181Z,98221.64
2019-04-07T11:29:51.834Z,98224.51
2019-04-07T11:32:24.171Z,98223.74
2019-04-07T11:34:57.455Z,98228.27
2019-04-07T11:37:27.693Z,98228.27
2019-04-07T11:40:04.705Z,98224.19
2019-04-07T11:42:41.537Z,98226.19
2019-04-07T11:45:31.345Z,98227.73
2019-04-07T11:48:08.390Z,98224.61
2019-04-07T11:50:45.022Z,98218.58
2019-04-07T11:53:15.650Z,98221.20
2019-04-07T11:56:06.964Z,98215.44
2019-04-07T11:58:53.078Z,98213.52
2019-04-07T12:01:39.634Z,98219.77
2019-04-07T12:04:27.051Z,98220.54
2019-04-07T12:07:03.555Z,98217.77
2019-04-07T12:09:39.667Z,98224.77
2019-04-07T12:12:12.668Z,98225.10
2019-04-07T12:14:58.887Z,98222.82
2019-04-07T12:17:42.599Z,98223.64
2019-04-07T12:20:13.934Z,98222.81
2019-04-07T12:22:53.890Z,98225.94
2019-04-07T12:25:24.360Z,98225.66
2019-04-07T12:28:00.238Z,98236.99
2019-04-07T12:30:33.736Z,98225.75
2019-04-07T12:33:19.123Z,98233.72
2019-04-07T12:35:51.710Z,98233.20
2019-04-07T12:38:25.260Z,98233.39
2019-04-07T12:41:16.654Z,98231.38
2019-04-07T12:43:42.800Z,98227.33
2019-04-07T12:46:21.018Z,98230.59
2019-04-07T12:48:51.484Z,98227.14
2019-04-07T12:51:22.393Z,98230.98
2019-04-07T12:54:09.233Z,98236.05
2019-04-07T12:56:48.889Z,98242.47
2019-04-07T12:59:19.330Z,98236.64
2019-04-07T13:01:52.169Z,98231.22
2019-04-07T13:04:22.198Z,98233.25
2019-04-07T13:07:08.939Z,98230.48
2019-04-07T13:09:39.488Z,98232.80
2019-04-07T13:12:20.405Z,98233.42
2019-04-07T13:14:47.612Z,98231.73
2019-04-07T13:17:17.675Z,98232.30
2019-04-07T13:20:02.575Z,98230.42
2019-04-07T13:22:34.403Z,98229.67
2019-04-07T13:25:14.266Z,98230.03
2019-04-07T13:28:00.455Z,98234.67
2019-04-07T13:30:43.293Z,98231.55
2019-04-07T13:33:20.083Z,98231.65
2019-04-07T13:35:48.842Z,98229.21
2019-04-07T13:38:19.015Z,98228.62
2019-04-07T13:41:07.333Z,98233.20
2019-04-07T13:43:41.039Z,98228.72
2019-04-07T13:46:22.253Z,98229.01
2019-04-07T13:49:12.811Z,98233.74
2019-04-07T13:54:43.688Z,98236.45
2019-04-07T13:57:26.008Z,98229.85
2019-04-07T14:00:13.404Z,98239.41
2019-04-07T14:02:53.340Z,98233.09
2019-04-07T14:05:33.042Z,98243.16
2019-04-07T14:08:04.059Z,98240.34
2019-04-07T14:10:37.020Z,98234.00
2019-04-07T14:13:09.419Z,98241.23
2019-04-07T14:15:42.037Z,98242.77
2019-04-07T14:18:12.366Z,98232.13
2019-04-07T14:20:51.757Z,98235.67
2019-04-07T14:23:25.146Z,98235.90
2019-04-07T14:25:58.021Z,98239.09
2019-04-07T14:28:29.648Z,98234.41
2019-04-07T14:31:07.597Z,98237.17
2019-04-07T14:33:54.411Z,98239.89
2019-04-07T14:36:30.163Z,98236.20
2019-04-07T14:39:00.226Z,98240.02
2019-04-07T14:41:31.179Z,98238.67
2019-04-07T14:44:04.189Z,98234.85
2019-04-07T14:46:40.204Z,98237.06
2019-04-07T14:49:27.881Z,98228.85
2019-04-07T14:51:58.181Z,98228.99
2019-04-07T14:54:30.852Z,98237.88
2019-04-07T14:57:17.020Z,98241.16
2019-04-07T14:59:52.087Z,98239.78
2019-04-07T15:02:20.214Z,98244.48
2019-04-07T15:04:50.954Z,98242.29
2019-04-07T15:07:33.297Z,98243.55
2019-04-07T15:10:09.525Z,98242.25
2019-04-07T15:12:40.342Z,98246.80
2019-04-07T15:15:11.737Z,98251.94
2019-04-07T15:17:40.391Z,98248.83
2019-04-07T15:20:11.715Z,98258.95
2019-04-07T15:22:39.426Z,98254.87
2019-04-07T15:25:10.239Z,98259.12
2019-04-07T15:27:38.817Z,98264.13
2019-04-07T15:30:13.221Z,98262.37
2019-04-07T15:32:39.510Z,98263.86
2019-04-07T15:35:29.653Z,98264.97
2019-04-07T15:37:59.092Z,98270.47
2019-04-07T15:40:28.130Z,98264.99
2019-04-07T15:42:56.894Z,98265.22
2019-04-07T15:45:25.426Z,98269.95
2019-04-07T15:47:54.077Z,98268.69
2019-04-07T15:50:24.510Z,98278.14
2019-04-07T15:52:54.181Z,98278.50
2019-04-07T15:55:26.331Z,98273.72
2019-04-07T15:57:54.890Z,98271.32
2019-04-07T16:00:23.769Z,98269.23
2019-04-07T16:02:53.507Z,98284.22
2019-04-07T16:05:24.139Z,98285.31
2019-04-07T16:07:53.602Z,98286.70
2019-04-07T16:10:23.796Z,98292.58
2019-04-07T16:12:53.854Z,98292.52
2019-04-07T16:15:23.446Z,98294.09
2019-04-07T16:17:53.602Z,98289.95
2019-04-07T16:20:26.299Z,98293.41
2019-04-07T16:22:55.781Z,98297.69
2019-04-07T16:25:27.628Z,98295.36
2019-04-07T16:27:54.836Z,98295.48
2019-04-07T16:30:23.467Z,98297.08
2019-04-07T16:32:52.418Z,98306.92
2019-04-07T16:35:21.090Z,98307.19
2019-04-07T16:37:52.101Z,98313.91
2019-04-07T16:40:20.665Z,98310.35
2019-04-07T16:43:04.808Z,98314.86
2019-04-07T16:45:19.275Z,98308.28
2019-04-07T16:47:47.866Z,98320.06
2019-04-07T16:50:18.904Z,98321.02
2019-04-07T16:52:47.121Z,98327.48
2019-04-07T16:55:35.128Z,98329.05
2019-04-07T16:58:03.648Z,98333.50
2019-04-07T17:00:32.457Z,98335.08
2019-04-07T17:03:01.302Z,98340.61
2019-04-07T17:05:32.210Z,98340.97
2019-04-07T17:08:01.657Z,98341.59
2019-04-07T17:10:33.884Z,98347.82
2019-04-07T17:13:02.818Z,98345.31
2019-04-07T17:15:31.626Z,98344.95
2019-04-07T17:18:00.284Z,98350.72
2019-04-07T17:20:33.392Z,98347.38
2019-04-07T17:22:59.003Z,98347.87
2019-04-07T17:25:27.385Z,98348.83
2019-04-07T17:27:58.688Z,98355.18
2019-04-07T17:30:26.914Z,98351.86
2019-04-07T17:32:56.605Z,98352.48
2019-04-07T17:35:25.088Z,98346.52
2019-04-07T17:37:56.567Z,98345.66
2019-04-07T17:40:26.705Z,98349.41
2019-04-07T17:42:57.736Z,98353.98
2019-04-07T17:45:33.693Z,98357.92
2019-04-07T17:48:20.249Z,98359.50
2019-04-07T17:51:08.415Z,98365.23
2019-04-07T17:53:38.360Z,98371.22
2019-04-07T17:56:17.909Z,98379.81
2019-04-07T17:58:48.531Z,98379.45
2019-04-07T18:01:31.280Z,98383.02
2019-04-07T18:04:17.269Z,98374.88
2019-04-07T18:07:02.094Z,98385.21
2019-04-07T18:09:30.958Z,98383.95
2019-04-07T18:12:19.815Z,98383.34
2019-04-07T18:14:57.529Z,98391.03
2019-04-07T18:17:28.589Z,98396.06
2019-04-07T18:20:05.256Z,98398.70
2019-04-07T18:22:39.098Z,98399.27
2019-04-07T18:25:16.181Z,98403.81
2019-04-07T18:27:48.830Z,98406.45
2019-04-07T18:30:24.759Z,98408.36
2019-04-07T18:32:57.626Z,98406.84
2019-04-07T18:35:34.757Z,98411.09
2019-04-07T18:38:11.416Z,98408.84
2019-04-07T18:41:00.398Z,98409.09
2019-04-07T18:43:49.095Z,98404.56
2019-04-07T18:46:17.853Z,98415.59
2019-04-07T18:48:50.927Z,98411.31
2019-04-07T18:51:37.224Z,98418.30
2019-04-07T18:54:09.961Z,98429.91
2019-04-07T18:56:55.878Z,98432.53
2019-04-07T18:59:25.960Z,98431.34
2019-04-07T19:02:14.313Z,98442.23
2019-04-07T19:04:58.186Z,98444.16
2019-04-07T19:07:27.211Z,98449.78
2019-04-07T19:10:19.870Z,98457.81
2019-04-07T19:13:07.807Z,98459.98
2019-04-07T19:15:40.867Z,98455.30
2019-04-07T19:18:23.665Z,98458.33
2019-04-07T19:20:53.715Z,98456.27
2019-04-07T19:23:37.576Z,98459.64
2019-04-07T19:26:10.675Z,98466.67
2019-04-07T19:28:58.074Z,98472.66
2019-04-07T19:31:48.041Z,98476.58
2019-04-07T19:34:32.853Z,98477.75
2019-04-07T19:37:06.022Z,98486.72
2019-04-07T19:39:55.224Z,98488.77
2019-04-07T19:42:29.848Z,98491.39
2019-04-07T19:45:15.777Z,98493.44
2019-04-07T19:47:59.327Z,98487.81
2019-04-07T19:50:36.985Z,98490.44
2019-04-07T19:53:20.331Z,98495.81
2019-04-07T19:55:58.162Z,98502.98
2019-04-07T19:58:40.947Z,98500.13
2019-04-07T20:01:23.393Z,98498.69
2019-04-07T20:03:54.619Z,98494.16
2019-04-07T20:06:27.937Z,98494.39
2019-04-07T20:09:05.170Z,98492.52
2019-04-07T20:11:51.455Z,98490.38
2019-04-07T20:14:30.601Z,98494.91
2019-04-07T20:17:04.181Z,98495.02
2019-04-07T20:19:41.374Z,98493.02
2019-04-07T20:22:11.599Z,98495.50
2019-04-07T20:24:47.543Z,98488.82
2019-04-07T20:27:16.114Z,98498.61
2019-04-07T20:29:49.636Z,98497.78
2019-04-07T20:32:35.290Z,98494.17
2019-04-07T20:35:10.993Z,98496.10
2019-04-07T20:37:41.124Z,98496.11
2019-04-07T20:40:27.524Z,98493.95
2019-04-07T20:42:58.471Z,98495.50
2019-04-07T20:45:28.926Z,98489.66
2019-04-07T20:48:01.696Z,98490.86
2019-04-07T20:50:35.492Z,98497.78
2019-04-07T20:53:13.836Z,98497.64
2019-04-07T20:55:43.895Z,98498.63
2019-04-07T20:58:23.959Z,98498.36
2019-04-07T21:01:11.258Z,98498.23
2019-04-07T21:03:40.249Z,98501.10
2019-04-07T21:06:13.501Z,98509.84
2019-04-07T21:09:02.837Z,98506.36
2019-04-07T21:11:42.874Z,98514.02
2019-04-07T21:14:15.519Z,98508.53
2019-04-07T21:16:46.456Z,98513.18
2019-04-07T21:19:37.461Z,98513.19
2019-04-07T21:22:18.706Z,98518.55
2019-04-07T21:25:05.226Z,98519.38
2019-04-07T21:27:49.085Z,98517.36
2019-04-07T21:30:20.739Z,98513.41
2019-04-07T21:32:57.292Z,98513.30
2019-04-07T21:35:44.774Z,98518.06
2019-04-07T21:38:24.250Z,98515.58
2019-04-07T21:41:12.238Z,98509.47
2019-04-07T21:43:44.683Z,98506.13
2019-04-07T21:46:31.153Z,98518.18
2019-04-07T21:49:17.930Z,98517.11
2019-04-07T21:51:57.390Z,98511.41
2019-04-07T21:54:39.784Z,98511.25
2019-04-07T21:57:09.977Z,98511.52
2019-04-07T21:59:40.207Z,98514.72
2019-04-07T22:02:12.174Z,98516.39
2019-04-07T22:04:58.671Z,98517.09
2019-04-07T22:07:33.239Z,98518.80
2019-04-07T22:10:06.207Z,98527.64
2019-04-07T22:12:35.671Z,98524.88
2019-04-07T22:15:11.661Z,98524.64
2019-04-07T22:17:39.379Z,98522.36
2019-04-07T22:20:12.624Z,98528.70
2019-04-07T22:22:42.962Z,98530.61
2019-04-07T22:25:12.297Z,98535.00
2019-04-07T22:27:41.053Z,98532.38
2019-04-07T22:30:11.776Z,98536.57
2019-04-07T22:32:40.736Z,98534.52
2019-04-07T22:35:10.685Z,98545.05
2019-04-07T22:37:39.946Z,98539.06
2019-04-07T22:40:15.502Z,98543.23
2019-04-07T22:42:45.976Z,98542.86
2019-04-07T22:45:15.628Z,98540.68
2019-04-07T22:47:46.694Z,98539.86
2019-04-07T22:50:15.472Z,98537.34
2019-04-07T22:52:49.194Z,98539.41
2019-04-07T22:55:16.509Z,98541.43
2019-04-07T22:57:45.507Z,98543.57
2019-04-07T23:00:19.122Z,98545.97
2019-04-07T23:02:48.621Z,98540.83
2019-04-07T23:05:17.226Z,98544.39
2019-04-07T23:07:45.948Z,98541.80
2019-04-07T23:10:16.007Z,98543.48
2019-04-07T23:12:44.553Z,98538.31
2019-04-07T23:15:13.468Z,98541.20
2019-04-07T23:17:41.906Z,98547.16
2019-04-07T23:20:10.885Z,98544.66
2019-04-07T23:22:42.410Z,98540.45
2019-04-07T23:25:11.999Z,98542.48
2019-04-07T23:27:41.590Z,98545.70
2019-04-07T23:30:12.283Z,98537.23
2019-04-07T23:32:43.729Z,98533.78
2019-04-07T23:35:14.534Z,98540.53
2019-04-07T23:37:43.239Z,98531.45
2019-04-07T23:40:11.847Z,98534.03
2019-04-07T23:42:40.328Z,98538.61
2019-04-07T23:45:09.108Z,98533.42
2019-04-07T23:47:37.461Z,98531.84
2019-04-07T23:50:07.489Z,98536.88
2019-04-07T23:52:36.900Z,98531.13
2019-04-07T23:55:05.343Z,98541.14
2019-04-07T23:57:33.773Z,98543.20
